Time;durP1;ratioP1;P1;durP2;ratioP2;P2;SDS_P1;SDS_P2;PMS_P1;PMS_P2;Temp;Humidity;BMP_temperature;BMP_pressure;BME280_temperature;BME280_humidity;BME280_pressure;Samples;Min_cycle;Max_cycle;Signal;HPM_P1;HPM_P2
2021/12/18 00:07:34;;;;;;;10.73;7.97;;;;;;;20.99;nan;101527.56;20403814;28;97842;-57
2021/12/18 00:17:35;;;;;;;13.40;9.10;;;;;;;20.96;nan;101525.97;20409987;28;102124;-58
2021/12/18 00:27:35;;;;;;;12.20;8.32;;;;;;;20.92;nan;101538.47;20426851;28;98491;-59
2021/12/18 00:37:37;;;;;;;13.27;9.18;;;;;;;20.88;nan;101538.72;20433958;28;99315;-58
2021/12/18 00:47:38;;;;;;;13.85;9.05;;;;;;;20.85;nan;101542.38;20402673;28;98952;-57
2021/12/18 00:57:40;;;;;;;11.35;9.55;;;;;;;20.80;nan;101533.91;20429087;28;101798;-57
2021/12/18 01:07:41;;;;;;;12.70;9.93;;;;;;;20.79;nan;101548.00;20407713;28;98889;-57
2021/12/18 01:28:02;;;;;;;15.00;9.68;;;;;;;20.73;nan;101564.16;20413320;28;99184;-57
2021/12/18 01:38:04;;;;;;;13.38;10.05;;;;;;;20.72;nan;101576.44;20411611;28;101808;-57
2021/12/18 01:58:11;;;;;;;14.48;10.38;;;;;;;20.67;nan;101599.50;20415777;28;98036;-56
2021/12/18 02:08:12;;;;;;;15.00;10.90;;;;;;;20.64;nan;101597.91;20412424;28;98203;-57
2021/12/18 02:28:36;;;;;;;14.30;10.43;;;;;;;20.58;nan;101615.81;20466559;28;103059;-57
2021/12/18 02:48:54;;;;;;;15.07;11.57;;;;;;;20.53;nan;101652.06;20417691;28;101173;-58
2021/12/18 02:59:04;;;;;;;15.73;11.98;;;;;;;20.51;nan;101614.44;20423039;28;102305;-58
2021/12/18 03:20:06;;;;;;;17.85;12.43;;;;;;;20.47;nan;101645.38;20444046;28;101269;-58
2021/12/18 03:29:35;;;;;;;17.77;12.45;;;;;;;20.42;nan;101674.53;20461513;28;102457;-58
2021/12/18 03:39:37;;;;;;;19.77;12.63;;;;;;;20.42;nan;101689.47;20446691;28;100796;-59
2021/12/18 03:49:38;;;;;;;15.98;12.07;;;;;;;20.39;nan;101671.22;20437172;28;99142;-58
2021/12/18 03:59:39;;;;;;;19.52;13.00;;;;;;;20.37;nan;101688.88;20419022;28;101116;-58
2021/12/18 04:09:42;;;;;;;17.13;12.68;;;;;;;20.34;nan;101673.25;20418712;28;98850;-57
2021/12/18 04:19:42;;;;;;;16.23;12.53;;;;;;;20.33;nan;101659.25;20414570;28;102684;-58
2021/12/18 04:29:43;;;;;;;18.55;13.50;;;;;;;20.30;nan;101683.94;20463772;28;100485;-58
2021/12/18 04:39:43;;;;;;;18.08;13.15;;;;;;;20.30;nan;101688.38;20475091;28;101262;-57
2021/12/18 04:49:44;;;;;;;16.65;13.02;;;;;;;20.27;nan;101723.53;20409810;28;98787;-58
2021/12/18 04:59:50;;;;;;;15.10;11.98;;;;;;;20.28;nan;101733.13;20412450;28;100959;-57
2021/12/18 05:09:53;;;;;;;17.60;13.40;;;;;;;20.30;nan;101746.22;20449821;28;99617;-58
2021/12/18 05:19:54;;;;;;;19.30;13.27;;;;;;;20.43;nan;101756.94;20451997;28;97461;-58
2021/12/18 05:29:56;;;;;;;22.97;16.37;;;;;;;20.56;nan;101778.22;20440923;28;102139;-58
2021/12/18 05:39:58;;;;;;;19.40;14.60;;;;;;;20.64;nan;101766.34;20414252;28;101880;-58
2021/12/18 05:49:59;;;;;;;16.63;12.53;;;;;;;20.71;nan;101785.28;20408939;28;101575;-58
2021/12/18 05:59:59;;;;;;;19.88;15.18;;;;;;;20.81;nan;101798.00;20438657;28;99844;-57
2021/12/18 06:10:02;;;;;;;19.70;15.20;;;;;;;20.87;nan;101808.19;20478577;28;101373;-58
2021/12/18 06:20:03;;;;;;;22.20;16.10;;;;;;;20.93;nan;101814.00;20446351;28;101809;-58
2021/12/18 06:30:05;;;;;;;20.15;15.38;;;;;;;21.03;nan;101806.44;20423225;28;100702;-58
2021/12/18 06:40:07;;;;;;;21.52;16.02;;;;;;;21.11;nan;101827.94;20458201;28;101675;-58
2021/12/18 06:50:08;;;;;;;28.57;17.63;;;;;;;21.18;nan;101846.91;20410311;28;100969;-58
2021/12/18 07:00:12;;;;;;;31.83;19.35;;;;;;;21.29;nan;101846.31;20420863;28;100267;-58
2021/12/18 07:10:14;;;;;;;24.35;17.20;;;;;;;21.42;nan;101835.94;20420168;28;98830;-57
2021/12/18 07:20:16;;;;;;;25.98;18.33;;;;;;;21.50;nan;101825.81;20450037;28;100456;-58
2021/12/18 07:30:16;;;;;;;28.40;21.63;;;;;;;21.61;nan;101833.16;20438203;28;102034;-58
2021/12/18 07:40:18;;;;;;;32.20;22.05;;;;;;;21.71;nan;101852.78;20412147;28;101221;-56
2021/12/18 07:50:20;;;;;;;29.83;21.85;;;;;;;21.68;nan;101865.28;20414078;28;102649;-58
2021/12/18 08:00:21;;;;;;;33.53;22.80;;;;;;;21.67;nan;101888.16;20408709;28;98357;-58
2021/12/18 08:10:22;;;;;;;28.27;14.15;;;;;;;21.31;nan;101865.50;20434190;28;98565;-58
2021/12/18 08:20:22;;;;;;;23.40;15.95;;;;;;;21.37;nan;101872.22;20426634;28;101520;-57
2021/12/18 08:30:23;;;;;;;25.63;17.52;;;;;;;21.42;nan;101876.31;20429450;28;97865;-57
2021/12/18 08:40:25;;;;;;;23.38;17.83;;;;;;;21.47;nan;101870.81;20427537;28;98319;-57
2021/12/18 08:50:26;;;;;;;26.40;18.77;;;;;;;21.50;nan;101872.41;20421388;28;100608;-57
2021/12/18 09:00:29;;;;;;;31.00;19.67;;;;;;;21.48;nan;101866.38;20415910;28;101364;-57
2021/12/18 09:10:30;;;;;;;24.88;18.60;;;;;;;21.53;nan;101865.19;20422499;28;99406;-56
2021/12/18 09:20:31;;;;;;;29.75;20.13;;;;;;;21.56;nan;101848.34;20422497;28;102292;-58
2021/12/18 09:30:32;;;;;;;28.25;21.38;;;;;;;21.58;nan;101843.84;20428666;28;100868;-57
2021/12/18 09:40:33;;;;;;;30.98;22.55;;;;;;;21.61;nan;101862.16;20459211;28;97623;-57
2021/12/18 09:50:36;;;;;;;35.72;25.17;;;;;;;21.65;nan;101849.66;20487344;28;98894;-57
2021/12/18 10:00:37;;;;;;;32.22;24.55;;;;;;;21.68;nan;101847.69;20443114;28;99358;-54
2021/12/18 10:10:56;;;;;;;34.45;25.38;;;;;;;;;;20429791;28;98860;-57
2021/12/18 10:21:10;;;;;;;34.67;26.73;;;;;;;21.81;nan;101857.53;20428144;28;98329;-57
2021/12/18 10:31:12;;;;;;;42.70;27.88;;;;;;;21.89;nan;101835.06;20415075;28;101106;-57
2021/12/18 10:41:45;;;;;;;39.97;23.70;;;;;;;21.95;nan;101811.91;20401796;28;101093;-56
2021/12/18 10:51:48;;;;;;;47.33;23.45;;;;;;;22.02;nan;101800.06;20456197;28;100987;-58
2021/12/18 11:01:54;;;;;;;32.40;23.38;;;;;;;22.17;nan;101785.97;20404369;28;101688;-58
2021/12/18 11:22:12;;;;;;;34.90;23.38;;;;;;;22.55;nan;101743.25;20408541;28;98545;-59
2021/12/18 11:32:19;;;;;;;30.92;21.95;;;;;;;22.65;nan;101737.41;20403469;28;101529;-61
2021/12/18 11:42:30;;;;;;;28.55;19.95;;;;;;;22.62;nan;101738.44;20408627;28;100942;-59
2021/12/18 11:52:52;;;;;;;25.42;18.13;;;;;;;22.51;nan;101733.00;20418144;28;99929;-59
2021/12/18 12:02:54;;;;;;;27.80;18.07;;;;;;;22.37;nan;101712.69;20428268;28;100358;-58
2021/12/18 12:12:56;;;;;;;33.17;17.30;;;;;;;22.28;nan;101718.53;20428666;28;100714;-59
2021/12/18 12:23:01;;;;;;;31.03;16.97;;;;;;;22.20;nan;101726.91;20410595;28;101250;-58
2021/12/18 12:33:05;;;;;;;22.80;17.27;;;;;;;22.14;nan;101732.53;20414803;28;101305;-59
2021/12/18 12:43:13;;;;;;;30.80;16.10;;;;;;;22.01;nan;101722.75;20428020;28;98265;-58
2021/12/18 12:53:14;;;;;;;21.58;15.43;;;;;;;21.95;nan;101714.31;20410817;28;98968;-58
2021/12/18 13:03:23;;;;;;;15.88;13.05;;;;;;;21.90;nan;101686.47;20437275;28;101652;-58
2021/12/18 13:13:27;;;;;;;19.88;14.90;;;;;;;21.85;nan;101680.63;20412322;28;97835;-59
2021/12/18 13:23:38;;;;;;;21.38;16.17;;;;;;;21.86;nan;101692.88;20413894;28;99887;-59
2021/12/18 13:33:38;;;;;;;24.88;17.30;;;;;;;21.85;nan;101679.75;20417650;28;100065;-58
2021/12/18 13:43:40;;;;;;;29.23;17.13;;;;;;;21.86;nan;101678.81;20436426;28;102821;-58
2021/12/18 13:54:03;;;;;;;35.53;18.25;;;;;;;21.92;nan;101667.91;20400850;28;101783;-57
2021/12/18 14:04:05;;;;;;;28.17;19.73;;;;;;;22.01;nan;101661.25;20390240;28;101459;-59
2021/12/18 14:14:09;;;;;;;29.33;18.33;;;;;;;21.94;nan;101665.19;20421907;28;99292;-58
2021/12/18 14:24:13;;;;;;;27.58;13.05;;;;;;;21.65;nan;101647.50;20432174;28;100332;-57
2021/12/18 14:34:25;;;;;;;17.30;10.77;;;;;;;21.56;nan;101642.78;20499523;28;100542;-58
2021/12/18 14:44:27;;;;;;;23.97;12.50;;;;;;;21.56;nan;101634.88;20492298;28;98607;-58
2021/12/18 14:54:28;;;;;;;16.27;12.03;;;;;;;21.53;nan;101635.91;20473792;28;100984;-58
2021/12/18 15:04:28;;;;;;;15.07;11.15;;;;;;;21.51;nan;101623.75;20508737;28;101291;-59
2021/12/18 15:14:36;;;;;;;17.20;11.00;;;;;;;21.48;nan;101621.28;20438393;28;99895;-58
2021/12/18 15:24:40;;;;;;;18.50;11.18;;;;;;;21.48;nan;101597.56;20416529;28;101646;-59
2021/12/18 15:34:41;;;;;;;15.95;10.80;;;;;;;21.48;nan;101592.31;20420769;27;101698;-58
2021/12/18 15:44:44;;;;;;;15.55;11.23;;;;;;;21.55;nan;101591.84;20423415;28;99123;-59
2021/12/18 15:54:45;;;;;;;17.20;10.32;;;;;;;21.53;nan;101572.66;20433524;28;100770;-58
2021/12/18 16:04:46;;;;;;;14.40;9.90;;;;;;;21.51;nan;101569.25;20418688;28;97294;-56
2021/12/18 16:14:46;;;;;;;12.93;9.20;;;;;;;21.49;nan;101578.19;20416345;28;101177;-58
2021/12/18 16:24:46;;;;;;;13.68;9.70;;;;;;;21.48;nan;101556.25;20443198;28;98352;-58
2021/12/18 16:34:47;;;;;;;10.93;8.70;;;;;;;21.47;nan;101551.06;20439240;28;98585;-57
2021/12/18 16:44:48;;;;;;;13.82;9.35;;;;;;;21.53;nan;101537.53;20410867;28;102837;-58
2021/12/18 16:54:51;;;;;;;12.07;8.93;;;;;;;21.52;nan;101534.06;20398543;28;98340;-57
2021/12/18 17:04:56;;;;;;;14.13;8.48;;;;;;;21.63;nan;101515.00;20399580;28;98140;-56
2021/12/18 17:14:57;;;;;;;14.98;7.97;;;;;;;21.57;nan;101496.91;20402558;28;100509;-58
2021/12/18 17:25:08;;;;;;;10.32;8.32;;;;;;;21.60;nan;101494.06;20399951;28;97814;-58
2021/12/18 17:35:11;;;;;;;14.55;7.80;;;;;;;21.63;nan;101498.31;20399882;28;99880;-57
2021/12/18 17:45:15;;;;;;;14.90;9.00;;;;;;;21.60;nan;101488.81;20487552;28;102236;-57
2021/12/18 17:55:17;;;;;;;11.55;8.48;;;;;;;21.57;nan;101468.75;20482209;28;103868;-57
2021/12/18 18:05:19;;;;;;;36.78;21.60;;;;;;;21.64;nan;101469.25;20430329;28;101776;-58
2021/12/18 18:15:20;;;;;;;35.03;20.40;;;;;;;21.65;nan;101464.81;20444613;28;100374;-58
2021/12/18 18:25:21;;;;;;;39.20;18.42;;;;;;;21.66;nan;101451.53;20414118;28;99455;-58
2021/12/18 18:35:21;;;;;;;32.83;17.85;;;;;;;21.69;nan;101450.47;20425883;28;101573;-58
2021/12/18 18:45:29;;;;;;;29.70;15.45;;;;;;;21.72;nan;101434.47;20505626;28;99102;-58
2021/12/18 18:55:31;;;;;;;27.23;15.32;;;;;;;21.72;nan;101431.84;20478690;28;100079;-58
2021/12/18 19:05:32;;;;;;;25.67;14.23;;;;;;;21.69;nan;101417.06;20425534;28;101298;-58
2021/12/18 19:15:33;;;;;;;25.55;13.57;;;;;;;21.71;nan;101398.50;20453207;28;102636;-56
2021/12/18 19:25:33;;;;;;;19.67;12.60;;;;;;;21.69;nan;101388.06;20435490;28;100118;-58
2021/12/18 19:35:35;;;;;;;18.20;11.90;;;;;;;21.70;nan;101394.19;20411839;28;97990;-57
2021/12/18 19:45:37;;;;;;;17.40;11.55;;;;;;;21.70;nan;101381.00;20431836;28;99659;-58
2021/12/18 19:55:39;;;;;;;22.67;12.03;;;;;;;21.68;nan;101348.63;20412061;28;99327;-57
2021/12/18 20:05:40;;;;;;;22.55;11.65;;;;;;;21.68;nan;101325.75;20406360;28;102118;-58
2021/12/18 20:15:42;;;;;;;16.80;10.77;;;;;;;21.59;nan;101305.25;20420813;28;101930;-57
2021/12/18 20:25:45;;;;;;;18.53;10.93;;;;;;;21.55;nan;101314.28;20421586;28;100607;-57
2021/12/18 20:35:47;;;;;;;15.85;10.45;;;;;;;21.46;nan;101314.84;20426311;28;98292;-57
2021/12/18 20:45:48;;;;;;;18.50;11.98;;;;;;;21.39;nan;101302.06;20430688;28;99367;-57
2021/12/18 20:55:50;;;;;;;16.70;11.43;;;;;;;21.36;nan;101286.47;20425098;28;101342;-57
2021/12/18 21:05:51;;;;;;;15.17;10.30;;;;;;;21.33;nan;101283.19;20425380;28;98116;-58
2021/12/18 21:15:56;;;;;;;16.95;11.18;;;;;;;21.27;nan;101290.53;20429358;28;99858;-57
2021/12/18 21:25:57;;;;;;;18.65;10.93;;;;;;;21.23;nan;101277.66;20424051;28;98395;-58
2021/12/18 21:46:21;;;;;;;15.03;10.33;;;;;;;21.15;nan;101258.88;20497399;28;98884;-57
2021/12/18 21:56:22;;;;;;;16.33;10.85;;;;;;;21.11;nan;101231.88;20518794;28;98469;-58
2021/12/18 22:06:24;;;;;;;14.57;10.30;;;;;;;21.06;nan;101233.97;20491384;28;98267;-59
2021/12/18 22:16:25;;;;;;;14.87;10.27;;;;;;;21.04;nan;101212.16;20423632;28;101378;-56
2021/12/18 22:26:27;;;;;;;14.32;9.40;;;;;;;21.01;nan;101225.53;20421413;28;102264;-56
2021/12/18 22:36:31;;;;;;;12.43;9.27;;;;;;;20.95;nan;101210.94;20427379;27;97903;-57
2021/12/18 22:46:33;;;;;;;11.57;8.13;;;;;;;20.94;nan;101198.72;20421056;28;101154;-58
2021/12/18 22:56:36;;;;;;;10.40;8.10;;;;;;;20.92;nan;101175.13;20415684;28;100635;-57
2021/12/18 23:06:38;;;;;;;13.20;8.50;;;;;;;20.89;nan;101156.06;20416883;28;102209;-57
2021/12/18 23:26:39;;;;;;;10.90;7.88;;;;;;;20.83;nan;101109.91;20411294;28;99124;-59
2021/12/18 23:36:42;;;;;;;11.77;8.35;;;;;;;20.79;nan;101100.53;20470591;28;97385;-57
2021/12/18 23:46:42;;;;;;;10.83;8.27;;;;;;;20.78;nan;101075.97;20414140;28;99285;-57
2021/12/18 23:56:43;;;;;;;11.30;8.77;;;;;;;20.73;nan;101070.19;20418540;28;102087;-57
